sensor_id;sensor_type;location;lat;lon;timestamp;temperature;humidity
73643;DHT22;61938;48.652;9.292;2023-03-21T00:01:11;7.90;99.90
73643;DHT22;61938;48.652;9.292;2023-03-21T00:03:37;7.90;99.90
73643;DHT22;61938;48.652;9.292;2023-03-21T00:06:07;8.00;99.90
73643;DHT22;61938;48.652;9.292;2023-03-21T00:08:33;7.90;99.90
73643;DHT22;61938;48.652;9.292;2023-03-21T00:11:01;7.90;99.90
73643;DHT22;61938;48.652;9.292;2023-03-21T00:13:29;7.80;99.90
73643;DHT22;61938;48.652;9.292;2023-03-21T00:15:57;7.80;99.90
73643;DHT22;61938;48.652;9.292;2023-03-21T00:18:27;7.80;99.90
73643;DHT22;61938;48.652;9.292;2023-03-21T00:21:01;7.90;99.90
73643;DHT22;61938;48.652;9.292;2023-03-21T00:23:29;7.90;99.90
73643;DHT22;61938;48.652;9.292;2023-03-21T00:25:55;7.90;99.90
73643;DHT22;61938;48.652;9.292;2023-03-21T00:28:21;7.90;99.90
73643;DHT22;61938;48.652;9.292;2023-03-21T00:30:47;7.80;99.90
73643;DHT22;61938;48.652;9.292;2023-03-21T00:33:12;7.80;99.90
73643;DHT22;61938;48.652;9.292;2023-03-21T00:35:39;7.80;99.90
73643;DHT22;61938;48.652;9.292;2023-03-21T00:38:09;7.80;99.90
73643;DHT22;61938;48.652;9.292;2023-03-21T00:40:35;7.80;99.90
73643;DHT22;61938;48.652;9.292;2023-03-21T00:43:01;7.80;99.90
73643;DHT22;61938;48.652;9.292;2023-03-21T00:45:26;7.70;99.90
73643;DHT22;61938;48.652;9.292;2023-03-21T00:47:52;7.70;99.90
73643;DHT22;61938;48.652;9.292;2023-03-21T00:50:17;7.70;99.90
73643;DHT22;61938;48.652;9.292;2023-03-21T00:52:43;7.60;99.90
73643;DHT22;61938;48.652;9.292;2023-03-21T00:55:13;7.60;99.90
73643;DHT22;61938;48.652;9.292;2023-03-21T00:57:39;7.60;99.90
73643;DHT22;61938;48.652;9.292;2023-03-21T01:00:06;7.60;99.90
73643;DHT22;61938;48.652;9.292;2023-03-21T01:02:33;7.60;99.90
73643;DHT22;61938;48.652;9.292;2023-03-21T01:04:59;7.60;99.90
73643;DHT22;61938;48.652;9.292;2023-03-21T01:07:24;7.60;99.90
73643;DHT22;61938;48.652;9.292;2023-03-21T01:09:50;7.60;99.90
73643;DHT22;61938;48.652;9.292;2023-03-21T01:12:15;7.60;99.90
73643;DHT22;61938;48.652;9.292;2023-03-21T01:14:41;7.60;99.90
73643;DHT22;61938;48.652;9.292;2023-03-21T01:17:07;7.60;99.90
73643;DHT22;61938;48.652;9.292;2023-03-21T01:19:33;7.60;99.90
73643;DHT22;61938;48.652;9.292;2023-03-21T01:21:58;7.60;99.90
73643;DHT22;61938;48.652;9.292;2023-03-21T01:24:24;7.60;99.90
73643;DHT22;61938;48.652;9.292;2023-03-21T01:26:50;7.60;99.90
73643;DHT22;61938;48.652;9.292;2023-03-21T01:29:15;7.60;99.90
73643;DHT22;61938;48.652;9.292;2023-03-21T01:31:41;7.60;99.90
73643;DHT22;61938;48.652;9.292;2023-03-21T01:34:06;7.60;99.90
73643;DHT22;61938;48.652;9.292;2023-03-21T01:36:32;7.70;99.90
73643;DHT22;61938;48.652;9.292;2023-03-21T01:38:57;7.70;99.90
73643;DHT22;61938;48.652;9.292;2023-03-21T01:41:49;7.70;99.90
73643;DHT22;61938;48.652;9.292;2023-03-21T01:44:16;7.70;99.90
73643;DHT22;61938;48.652;9.292;2023-03-21T01:46:46;7.70;99.90
73643;DHT22;61938;48.652;9.292;2023-03-21T01:49:32;7.70;99.90
73643;DHT22;61938;48.652;9.292;2023-03-21T01:52:14;7.70;99.90
73643;DHT22;61938;48.652;9.292;2023-03-21T01:54:42;7.70;99.90
73643;DHT22;61938;48.652;9.292;2023-03-21T01:57:12;7.60;99.90
73643;DHT22;61938;48.652;9.292;2023-03-21T01:59:46;7.60;99.90
73643;DHT22;61938;48.652;9.292;2023-03-21T02:02:28;7.60;99.90
73643;DHT22;61938;48.652;9.292;2023-03-21T02:04:56;7.60;99.90
73643;DHT22;61938;48.652;9.292;2023-03-21T02:07:30;7.60;99.90
73643;DHT22;61938;48.652;9.292;2023-03-21T02:10:01;7.60;99.90
73643;DHT22;61938;48.652;9.292;2023-03-21T02:12:30;7.70;99.90
73643;DHT22;61938;48.652;9.292;2023-03-21T02:14:56;7.60;99.90
73643;DHT22;61938;48.652;9.292;2023-03-21T02:17:35;7.60;99.90
73643;DHT22;61938;48.652;9.292;2023-03-21T02:25:55;7.70;99.90
73643;DHT22;61938;48.652;9.292;2023-03-21T02:28:40;7.60;99.90
73643;DHT22;61938;48.652;9.292;2023-03-21T02:37:04;7.70;99.90
73643;DHT22;61938;48.652;9.292;2023-03-21T02:39:52;7.70;99.90
73643;DHT22;61938;48.652;9.292;2023-03-21T02:45:05;7.70;99.90
73643;DHT22;61938;48.652;9.292;2023-03-21T02:47:50;7.70;99.90
73643;DHT22;61938;48.652;9.292;2023-03-21T02:50:41;7.70;99.90
73643;DHT22;61938;48.652;9.292;2023-03-21T02:53:09;7.60;99.90
73643;DHT22;61938;48.652;9.292;2023-03-21T02:55:36;7.70;99.90
73643;DHT22;61938;48.652;9.292;2023-03-21T02:58:07;7.70;99.90
73643;DHT22;61938;48.652;9.292;2023-03-21T03:00:34;7.70;99.90
73643;DHT22;61938;48.652;9.292;2023-03-21T03:03:01;7.70;99.90
73643;DHT22;61938;48.652;9.292;2023-03-21T03:05:30;7.70;99.90
73643;DHT22;61938;48.652;9.292;2023-03-21T03:08:26;7.70;99.90
73643;DHT22;61938;48.652;9.292;2023-03-21T03:11:13;7.60;99.90
73643;DHT22;61938;48.652;9.292;2023-03-21T03:13:56;7.60;99.90
73643;DHT22;61938;48.652;9.292;2023-03-21T03:16:27;7.60;99.90
73643;DHT22;61938;48.652;9.292;2023-03-21T03:18:58;7.60;99.90
73643;DHT22;61938;48.652;9.292;2023-03-21T03:21:33;7.60;99.90
73643;DHT22;61938;48.652;9.292;2023-03-21T03:24:13;7.50;99.90
73643;DHT22;61938;48.652;9.292;2023-03-21T03:26:47;7.50;99.90
73643;DHT22;61938;48.652;9.292;2023-03-21T03:29:17;7.50;99.90
73643;DHT22;61938;48.652;9.292;2023-03-21T03:31:57;7.50;99.90
73643;DHT22;61938;48.652;9.292;2023-03-21T03:34:29;7.50;99.90
73643;DHT22;61938;48.652;9.292;2023-03-21T03:37:01;7.60;99.90
73643;DHT22;61938;48.652;9.292;2023-03-21T03:42:39;7.60;99.90
73643;DHT22;61938;48.652;9.292;2023-03-21T03:45:07;7.50;99.90
73643;DHT22;61938;48.652;9.292;2023-03-21T03:47:53;7.50;99.90
73643;DHT22;61938;48.652;9.292;2023-03-21T03:50:29;7.50;99.90
73643;DHT22;61938;48.652;9.292;2023-03-21T03:53:26;7.50;99.90
73643;DHT22;61938;48.652;9.292;2023-03-21T03:55:53;7.50;99.90
73643;DHT22;61938;48.652;9.292;2023-03-21T03:58:20;7.50;99.90
73643;DHT22;61938;48.652;9.292;2023-03-21T04:00:47;7.40;99.90
73643;DHT22;61938;48.652;9.292;2023-03-21T04:03:13;7.50;99.90
73643;DHT22;61938;48.652;9.292;2023-03-21T04:05:39;7.40;99.90
73643;DHT22;61938;48.652;9.292;2023-03-21T04:08:06;7.40;99.90
73643;DHT22;61938;48.652;9.292;2023-03-21T04:10:32;7.40;99.90
73643;DHT22;61938;48.652;9.292;2023-03-21T04:12:58;7.50;99.90
73643;DHT22;61938;48.652;9.292;2023-03-21T04:15:23;7.50;99.90
73643;DHT22;61938;48.652;9.292;2023-03-21T04:17:49;7.50;99.90
73643;DHT22;61938;48.652;9.292;2023-03-21T04:20:15;7.40;99.90
73643;DHT22;61938;48.652;9.292;2023-03-21T04:22:41;7.40;99.90
73643;DHT22;61938;48.652;9.292;2023-03-21T04:25:07;7.40;99.90
73643;DHT22;61938;48.652;9.292;2023-03-21T04:27:33;7.40;99.90
73643;DHT22;61938;48.652;9.292;2023-03-21T04:29:58;7.40;99.90
73643;DHT22;61938;48.652;9.292;2023-03-21T04:32:25;7.40;99.90
73643;DHT22;61938;48.652;9.292;2023-03-21T04:34:51;7.30;99.90
73643;DHT22;61938;48.652;9.292;2023-03-21T04:37:19;7.40;99.90
73643;DHT22;61938;48.652;9.292;2023-03-21T04:39:45;7.40;99.90
73643;DHT22;61938;48.652;9.292;2023-03-21T04:42:15;7.30;99.90
73643;DHT22;61938;48.652;9.292;2023-03-21T04:44:46;7.30;99.90
73643;DHT22;61938;48.652;9.292;2023-03-21T04:47:13;7.30;99.90
73643;DHT22;61938;48.652;9.292;2023-03-21T04:49:43;7.30;99.90
73643;DHT22;61938;48.652;9.292;2023-03-21T04:52:08;7.30;99.90
73643;DHT22;61938;48.652;9.292;2023-03-21T04:54:33;7.30;99.90
73643;DHT22;61938;48.652;9.292;2023-03-21T04:56:59;7.30;99.90
73643;DHT22;61938;48.652;9.292;2023-03-21T04:59:25;7.20;99.90
73643;DHT22;61938;48.652;9.292;2023-03-21T05:01:50;7.20;99.90
73643;DHT22;61938;48.652;9.292;2023-03-21T05:04:16;7.20;99.90
73643;DHT22;61938;48.652;9.292;2023-03-21T05:06:44;7.20;99.90
73643;DHT22;61938;48.652;9.292;2023-03-21T05:09:11;7.20;99.90
73643;DHT22;61938;48.652;9.292;2023-03-21T05:11:38;7.10;99.90
73643;DHT22;61938;48.652;9.292;2023-03-21T05:14:06;7.00;99.90
73643;DHT22;61938;48.652;9.292;2023-03-21T05:16:32;7.00;99.90
73643;DHT22;61938;48.652;9.292;2023-03-21T05:18:59;6.90;99.90
73643;DHT22;61938;48.652;9.292;2023-03-21T05:21:28;6.90;99.90
73643;DHT22;61938;48.652;9.292;2023-03-21T05:23:58;6.80;99.90
73643;DHT22;61938;48.652;9.292;2023-03-21T05:26:28;6.80;99.90
73643;DHT22;61938;48.652;9.292;2023-03-21T05:28:54;6.80;99.90
73643;DHT22;61938;48.652;9.292;2023-03-21T05:31:19;6.80;99.90
73643;DHT22;61938;48.652;9.292;2023-03-21T05:33:46;6.80;99.90
73643;DHT22;61938;48.652;9.292;2023-03-21T05:36:12;6.80;99.90
73643;DHT22;61938;48.652;9.292;2023-03-21T05:38:39;6.70;99.90
73643;DHT22;61938;48.652;9.292;2023-03-21T05:41:10;6.80;99.90
73643;DHT22;61938;48.652;9.292;2023-03-21T05:43:36;6.70;99.90
73643;DHT22;61938;48.652;9.292;2023-03-21T05:46:01;6.70;99.90
73643;DHT22;61938;48.652;9.292;2023-03-21T05:48:27;6.70;99.90
73643;DHT22;61938;48.652;9.292;2023-03-21T05:50:53;6.70;99.90
73643;DHT22;61938;48.652;9.292;2023-03-21T05:53:19;6.70;99.90
73643;DHT22;61938;48.652;9.292;2023-03-21T05:55:44;6.70;99.90
73643;DHT22;61938;48.652;9.292;2023-03-21T05:58:10;6.70;99.90
73643;DHT22;61938;48.652;9.292;2023-03-21T06:00:35;6.70;99.90
73643;DHT22;61938;48.652;9.292;2023-03-21T06:03:01;6.70;99.90
73643;DHT22;61938;48.652;9.292;2023-03-21T06:05:26;6.80;99.90
73643;DHT22;61938;48.652;9.292;2023-03-21T06:07:52;6.80;99.90
73643;DHT22;61938;48.652;9.292;2023-03-21T06:10:17;6.90;99.90
73643;DHT22;61938;48.652;9.292;2023-03-21T06:12:43;6.90;99.90
73643;DHT22;61938;48.652;9.292;2023-03-21T06:15:09;6.90;99.90
73643;DHT22;61938;48.652;9.292;2023-03-21T06:17:35;6.90;99.90
73643;DHT22;61938;48.652;9.292;2023-03-21T06:20:01;7.00;99.90
73643;DHT22;61938;48.652;9.292;2023-03-21T06:22:28;7.00;99.90
73643;DHT22;61938;48.652;9.292;2023-03-21T06:24:54;7.00;99.90
73643;DHT22;61938;48.652;9.292;2023-03-21T06:27:20;7.10;99.90
73643;DHT22;61938;48.652;9.292;2023-03-21T06:29:45;7.10;99.90
73643;DHT22;61938;48.652;9.292;2023-03-21T06:32:11;7.10;99.90
73643;DHT22;61938;48.652;9.292;2023-03-21T06:34:37;7.20;99.90
73643;DHT22;61938;48.652;9.292;2023-03-21T06:37:02;7.20;99.90
73643;DHT22;61938;48.652;9.292;2023-03-21T06:39:28;7.20;99.90
73643;DHT22;61938;48.652;9.292;2023-03-21T06:41:55;7.30;99.90
73643;DHT22;61938;48.652;9.292;2023-03-21T06:44:21;7.20;99.90
73643;DHT22;61938;48.652;9.292;2023-03-21T06:46:47;7.20;99.90
73643;DHT22;61938;48.652;9.292;2023-03-21T06:49:12;7.20;99.90
73643;DHT22;61938;48.652;9.292;2023-03-21T06:51:38;7.20;99.90
73643;DHT22;61938;48.652;9.292;2023-03-21T06:54:03;7.20;99.90
73643;DHT22;61938;48.652;9.292;2023-03-21T06:56:29;7.20;99.90
73643;DHT22;61938;48.652;9.292;2023-03-21T06:58:54;7.30;99.90
73643;DHT22;61938;48.652;9.292;2023-03-21T07:01:20;7.30;99.90
73643;DHT22;61938;48.652;9.292;2023-03-21T07:03:46;7.40;99.90
73643;DHT22;61938;48.652;9.292;2023-03-21T07:06:11;7.50;99.90
73643;DHT22;61938;48.652;9.292;2023-03-21T07:08:38;7.60;99.90
73643;DHT22;61938;48.652;9.292;2023-03-21T07:11:04;7.70;99.90
73643;DHT22;61938;48.652;9.292;2023-03-21T07:13:31;7.80;99.90
73643;DHT22;61938;48.652;9.292;2023-03-21T07:15:57;7.90;99.90
73643;DHT22;61938;48.652;9.292;2023-03-21T07:18:22;7.90;99.90
73643;DHT22;61938;48.652;9.292;2023-03-21T07:20:49;8.00;99.90
73643;DHT22;61938;48.652;9.292;2023-03-21T07:23:16;8.10;99.90
73643;DHT22;61938;48.652;9.292;2023-03-21T07:25:42;8.30;99.90
73643;DHT22;61938;48.652;9.292;2023-03-21T07:28:07;8.40;99.90
73643;DHT22;61938;48.652;9.292;2023-03-21T07:30:33;8.50;99.90
73643;DHT22;61938;48.652;9.292;2023-03-21T07:32:59;8.60;99.90
73643;DHT22;61938;48.652;9.292;2023-03-21T07:35:25;8.70;99.90
73643;DHT22;61938;48.652;9.292;2023-03-21T07:37:50;9.00;99.90
73643;DHT22;61938;48.652;9.292;2023-03-21T07:40:16;9.10;99.90
73643;DHT22;61938;48.652;9.292;2023-03-21T07:42:42;9.40;99.90
73643;DHT22;61938;48.652;9.292;2023-03-21T07:45:08;9.60;99.90
73643;DHT22;61938;48.652;9.292;2023-03-21T07:47:34;9.80;99.90
73643;DHT22;61938;48.652;9.292;2023-03-21T07:50:01;9.90;99.90
73643;DHT22;61938;48.652;9.292;2023-03-21T07:52:27;10.00;99.90
73643;DHT22;61938;48.652;9.292;2023-03-21T07:54:53;10.10;99.90
73643;DHT22;61938;48.652;9.292;2023-03-21T07:57:18;10.20;99.90
73643;DHT22;61938;48.652;9.292;2023-03-21T07:59:44;10.40;99.90
73643;DHT22;61938;48.652;9.292;2023-03-21T08:02:13;10.40;99.90
73643;DHT22;61938;48.652;9.292;2023-03-21T08:04:39;10.70;99.90
73643;DHT22;61938;48.652;9.292;2023-03-21T08:07:05;10.90;99.90
73643;DHT22;61938;48.652;9.292;2023-03-21T08:09:30;11.00;99.90
73643;DHT22;61938;48.652;9.292;2023-03-21T08:11:55;11.20;99.90
73643;DHT22;61938;48.652;9.292;2023-03-21T08:14:21;11.70;99.90
73643;DHT22;61938;48.652;9.292;2023-03-21T08:16:46;11.80;99.90
73643;DHT22;61938;48.652;9.292;2023-03-21T08:19:12;12.00;99.90
73643;DHT22;61938;48.652;9.292;2023-03-21T08:21:37;12.20;99.90
73643;DHT22;61938;48.652;9.292;2023-03-21T08:24:04;12.10;99.90
73643;DHT22;61938;48.652;9.292;2023-03-21T08:26:31;12.50;99.90
73643;DHT22;61938;48.652;9.292;2023-03-21T08:28:57;12.40;99.90
73643;DHT22;61938;48.652;9.292;2023-03-21T08:31:22;11.90;99.90
73643;DHT22;61938;48.652;9.292;2023-03-21T08:33:48;11.60;99.90
73643;DHT22;61938;48.652;9.292;2023-03-21T08:36:18;11.50;99.90
73643;DHT22;61938;48.652;9.292;2023-03-21T08:38:44;11.50;99.90
73643;DHT22;61938;48.652;9.292;2023-03-21T08:41:12;11.90;99.90
73643;DHT22;61938;48.652;9.292;2023-03-21T08:43:37;12.20;99.90
73643;DHT22;61938;48.652;9.292;2023-03-21T08:46:03;12.40;99.90
73643;DHT22;61938;48.652;9.292;2023-03-21T08:48:28;12.60;99.90
73643;DHT22;61938;48.652;9.292;2023-03-21T08:50:54;12.70;99.90
73643;DHT22;61938;48.652;9.292;2023-03-21T08:53:19;13.00;99.90
73643;DHT22;61938;48.652;9.292;2023-03-21T08:55:45;12.90;99.90
73643;DHT22;61938;48.652;9.292;2023-03-21T08:58:11;12.70;99.90
73643;DHT22;61938;48.652;9.292;2023-03-21T09:00:36;12.90;99.90
73643;DHT22;61938;48.652;9.292;2023-03-21T09:03:02;13.20;99.90
73643;DHT22;61938;48.652;9.292;2023-03-21T09:05:29;13.60;99.90
73643;DHT22;61938;48.652;9.292;2023-03-21T09:07:55;13.80;99.90
73643;DHT22;61938;48.652;9.292;2023-03-21T09:10:21;13.70;99.90
73643;DHT22;61938;48.652;9.292;2023-03-21T09:12:49;13.80;99.90
73643;DHT22;61938;48.652;9.292;2023-03-21T09:15:15;14.00;99.90
73643;DHT22;61938;48.652;9.292;2023-03-21T09:17:42;14.30;99.90
73643;DHT22;61938;48.652;9.292;2023-03-21T09:20:10;14.50;99.90
73643;DHT22;61938;48.652;9.292;2023-03-21T09:22:46;14.80;99.90
73643;DHT22;61938;48.652;9.292;2023-03-21T09:25:13;14.90;99.90
73643;DHT22;61938;48.652;9.292;2023-03-21T09:27:40;14.90;99.90
73643;DHT22;61938;48.652;9.292;2023-03-21T09:30:07;15.10;99.90
73643;DHT22;61938;48.652;9.292;2023-03-21T09:32:34;15.30;99.90
73643;DHT22;61938;48.652;9.292;2023-03-21T09:35:00;15.70;99.90
73643;DHT22;61938;48.652;9.292;2023-03-21T09:37:26;15.70;99.90
73643;DHT22;61938;48.652;9.292;2023-03-21T09:39:52;15.50;99.90
73643;DHT22;61938;48.652;9.292;2023-03-21T09:42:43;15.10;99.90
73643;DHT22;61938;48.652;9.292;2023-03-21T09:45:17;15.10;99.90
73643;DHT22;61938;48.652;9.292;2023-03-21T09:47:47;15.10;99.90
73643;DHT22;61938;48.652;9.292;2023-03-21T09:50:33;15.10;99.90
73643;DHT22;61938;48.652;9.292;2023-03-21T09:53:08;14.90;99.90
73643;DHT22;61938;48.652;9.292;2023-03-21T09:55:38;14.90;99.90
73643;DHT22;61938;48.652;9.292;2023-03-21T09:58:24;15.00;99.90
73643;DHT22;61938;48.652;9.292;2023-03-21T10:01:04;15.10;99.90
73643;DHT22;61938;48.652;9.292;2023-03-21T10:03:36;15.20;99.90
73643;DHT22;61938;48.652;9.292;2023-03-21T10:06:09;15.60;99.90
73643;DHT22;61938;48.652;9.292;2023-03-21T10:08:39;15.70;99.90
73643;DHT22;61938;48.652;9.292;2023-03-21T10:13:42;16.10;99.90
73643;DHT22;61938;48.652;9.292;2023-03-21T10:16:18;16.10;99.90
73643;DHT22;61938;48.652;9.292;2023-03-21T10:18:45;15.90;99.90
73643;DHT22;61938;48.652;9.292;2023-03-21T10:21:24;16.10;99.90
73643;DHT22;61938;48.652;9.292;2023-03-21T10:23:53;16.30;99.90
73643;DHT22;61938;48.652;9.292;2023-03-21T10:26:21;16.60;99.90
73643;DHT22;61938;48.652;9.292;2023-03-21T10:28:48;16.70;99.90
73643;DHT22;61938;48.652;9.292;2023-03-21T10:31:19;16.50;99.90
73643;DHT22;61938;48.652;9.292;2023-03-21T10:33:48;16.50;99.90
73643;DHT22;61938;48.652;9.292;2023-03-21T10:36:20;16.80;99.90
73643;DHT22;61938;48.652;9.292;2023-03-21T10:38:48;17.30;99.90
73643;DHT22;61938;48.652;9.292;2023-03-21T10:41:15;17.10;99.90
73643;DHT22;61938;48.652;9.292;2023-03-21T10:43:41;16.90;99.90
73643;DHT22;61938;48.652;9.292;2023-03-21T10:46:10;16.70;99.90
73643;DHT22;61938;48.652;9.292;2023-03-21T10:48:38;16.70;99.90
73643;DHT22;61938;48.652;9.292;2023-03-21T10:51:07;16.60;99.90
73643;DHT22;61938;48.652;9.292;2023-03-21T10:53:43;16.60;99.90
73643;DHT22;61938;48.652;9.292;2023-03-21T10:56:11;16.80;99.90
73643;DHT22;61938;48.652;9.292;2023-03-21T10:58:44;16.80;99.90
73643;DHT22;61938;48.652;9.292;2023-03-21T11:01:13;16.70;99.90
73643;DHT22;61938;48.652;9.292;2023-03-21T11:03:42;16.40;99.90
73643;DHT22;61938;48.652;9.292;2023-03-21T11:06:13;16.50;99.90
73643;DHT22;61938;48.652;9.292;2023-03-21T11:08:47;16.30;99.90
73643;DHT22;61938;48.652;9.292;2023-03-21T11:11:25;16.40;99.90
73643;DHT22;61938;48.652;9.292;2023-03-21T11:13:58;16.10;99.90
73643;DHT22;61938;48.652;9.292;2023-03-21T11:16:38;16.30;99.90
73643;DHT22;61938;48.652;9.292;2023-03-21T11:19:32;16.30;99.90
73643;DHT22;61938;48.652;9.292;2023-03-21T11:22:05;16.30;99.90
73643;DHT22;61938;48.652;9.292;2023-03-21T11:24:31;16.30;99.90
73643;DHT22;61938;48.652;9.292;2023-03-21T11:26:58;16.30;99.90
73643;DHT22;61938;48.652;9.292;2023-03-21T11:29:36;16.40;99.90
73643;DHT22;61938;48.652;9.292;2023-03-21T11:32:33;16.50;99.90
73643;DHT22;61938;48.652;9.292;2023-03-21T11:35:01;16.50;99.90
73643;DHT22;61938;48.652;9.292;2023-03-21T11:40:21;16.50;99.90
73643;DHT22;61938;48.652;9.292;2023-03-21T11:42:54;16.30;99.90
73643;DHT22;61938;48.652;9.292;2023-03-21T11:45:32;16.10;99.90
73643;DHT22;61938;48.652;9.292;2023-03-21T11:48:00;16.30;99.90
73643;DHT22;61938;48.652;9.292;2023-03-21T11:50:34;17.40;99.90
73643;DHT22;61938;48.652;9.292;2023-03-21T11:56:27;16.00;99.90
73643;DHT22;61938;48.652;9.292;2023-03-21T11:58:59;16.10;99.90
73643;DHT22;61938;48.652;9.292;2023-03-21T12:01:45;16.10;99.90
73643;DHT22;61938;48.652;9.292;2023-03-21T12:07:32;16.10;99.90
73643;DHT22;61938;48.652;9.292;2023-03-21T12:18:51;15.70;99.90
73643;DHT22;61938;48.652;9.292;2023-03-21T12:21:53;15.70;99.90
73643;DHT22;61938;48.652;9.292;2023-03-21T12:24:41;15.70;99.90
73643;DHT22;61938;48.652;9.292;2023-03-21T12:27:17;15.70;99.90
73643;DHT22;61938;48.652;9.292;2023-03-21T12:30:09;15.80;99.90
73643;DHT22;61938;48.652;9.292;2023-03-21T12:38:16;15.90;99.90
73643;DHT22;61938;48.652;9.292;2023-03-21T12:41:08;15.90;99.90
73643;DHT22;61938;48.652;9.292;2023-03-21T12:43:43;16.00;99.90
73643;DHT22;61938;48.652;9.292;2023-03-21T12:46:19;16.00;99.90
73643;DHT22;61938;48.652;9.292;2023-03-21T12:48:54;16.00;99.90
73643;DHT22;61938;48.652;9.292;2023-03-21T12:51:49;15.90;99.90
73643;DHT22;61938;48.652;9.292;2023-03-21T12:56:58;15.70;99.90
73643;DHT22;61938;48.652;9.292;2023-03-21T12:59:45;15.70;99.90
73643;DHT22;61938;48.652;9.292;2023-03-21T13:02:33;15.70;99.90
73643;DHT22;61938;48.652;9.292;2023-03-21T13:05:26;15.80;99.90
73643;DHT22;61938;48.652;9.292;2023-03-21T13:08:17;15.90;99.90
73643;DHT22;61938;48.652;9.292;2023-03-21T13:10:45;15.90;99.90
73643;DHT22;61938;48.652;9.292;2023-03-21T13:13:25;16.00;99.90
73643;DHT22;61938;48.652;9.292;2023-03-21T13:16:12;16.00;99.90
73643;DHT22;61938;48.652;9.292;2023-03-21T13:27:03;16.40;99.90
73643;DHT22;61938;48.652;9.292;2023-03-21T13:29:46;16.50;99.90
73643;DHT22;61938;48.652;9.292;2023-03-21T13:34:43;16.60;99.90
73643;DHT22;61938;48.652;9.292;2023-03-21T13:37:14;16.50;99.90
73643;DHT22;61938;48.652;9.292;2023-03-21T13:39:44;16.50;99.90
73643;DHT22;61938;48.652;9.292;2023-03-21T13:42:16;16.70;99.90
73643;DHT22;61938;48.652;9.292;2023-03-21T13:44:59;16.60;99.90
73643;DHT22;61938;48.652;9.292;2023-03-21T13:47:50;16.50;99.90
73643;DHT22;61938;48.652;9.292;2023-03-21T13:55:33;16.70;99.90
73643;DHT22;61938;48.652;9.292;2023-03-21T13:58:21;16.80;99.90
73643;DHT22;61938;48.652;9.292;2023-03-21T14:03:34;16.60;99.90
73643;DHT22;61938;48.652;9.292;2023-03-21T14:06:00;16.60;99.90
73643;DHT22;61938;48.652;9.292;2023-03-21T14:08:28;16.60;99.90
73643;DHT22;61938;48.652;9.292;2023-03-21T14:11:04;16.60;99.90
73643;DHT22;61938;48.652;9.292;2023-03-21T14:13:30;16.60;99.90
73643;DHT22;61938;48.652;9.292;2023-03-21T14:16:06;16.50;99.90
73643;DHT22;61938;48.652;9.292;2023-03-21T14:18:47;16.40;99.90
73643;DHT22;61938;48.652;9.292;2023-03-21T14:21:19;16.30;99.90
73643;DHT22;61938;48.652;9.292;2023-03-21T14:23:45;16.30;99.90
73643;DHT22;61938;48.652;9.292;2023-03-21T14:26:12;16.20;99.90
73643;DHT22;61938;48.652;9.292;2023-03-21T14:28:44;16.20;99.90
73643;DHT22;61938;48.652;9.292;2023-03-21T14:31:14;16.20;99.90
73643;DHT22;61938;48.652;9.292;2023-03-21T14:33:41;16.20;99.90
73643;DHT22;61938;48.652;9.292;2023-03-21T14:36:18;16.20;99.90
73643;DHT22;61938;48.652;9.292;2023-03-21T14:39:04;16.20;99.90
73643;DHT22;61938;48.652;9.292;2023-03-21T14:41:31;16.10;99.90
73643;DHT22;61938;48.652;9.292;2023-03-21T14:44:25;16.20;99.90
73643;DHT22;61938;48.652;9.292;2023-03-21T14:47:03;16.20;99.90
73643;DHT22;61938;48.652;9.292;2023-03-21T14:49:32;16.20;99.90
73643;DHT22;61938;48.652;9.292;2023-03-21T14:52:15;16.20;99.90
73643;DHT22;61938;48.652;9.292;2023-03-21T14:54:44;16.20;99.90
73643;DHT22;61938;48.652;9.292;2023-03-21T14:57:19;16.20;99.90
73643;DHT22;61938;48.652;9.292;2023-03-21T14:59:47;16.20;99.90
73643;DHT22;61938;48.652;9.292;2023-03-21T15:04:43;16.10;99.90
73643;DHT22;61938;48.652;9.292;2023-03-21T15:07:26;16.10;98.70
73643;DHT22;61938;48.652;9.292;2023-03-21T15:10:02;16.10;99.60
73643;DHT22;61938;48.652;9.292;2023-03-21T15:12:29;16.10;99.30
73643;DHT22;61938;48.652;9.292;2023-03-21T15:14:55;16.10;99.90
73643;DHT22;61938;48.652;9.292;2023-03-21T15:17:21;16.10;99.90
73643;DHT22;61938;48.652;9.292;2023-03-21T15:19:47;16.10;99.90
73643;DHT22;61938;48.652;9.292;2023-03-21T15:22:21;16.10;99.90
73643;DHT22;61938;48.652;9.292;2023-03-21T15:24:52;16.10;99.90
73643;DHT22;61938;48.652;9.292;2023-03-21T15:27:22;16.10;99.80
73643;DHT22;61938;48.652;9.292;2023-03-21T15:29:54;16.20;97.80
73643;DHT22;61938;48.652;9.292;2023-03-21T15:32:23;16.20;98.10
73643;DHT22;61938;48.652;9.292;2023-03-21T15:34:51;16.20;97.40
73643;DHT22;61938;48.652;9.292;2023-03-21T15:37:36;16.30;98.90
73643;DHT22;61938;48.652;9.292;2023-03-21T15:40:33;16.30;98.00
73643;DHT22;61938;48.652;9.292;2023-03-21T15:43:18;16.30;97.90
73643;DHT22;61938;48.652;9.292;2023-03-21T15:45:55;16.30;95.30
73643;DHT22;61938;48.652;9.292;2023-03-21T15:48:25;16.30;97.80
73643;DHT22;61938;48.652;9.292;2023-03-21T15:50:58;16.30;97.20
73643;DHT22;61938;48.652;9.292;2023-03-21T15:53:25;16.30;98.30
73643;DHT22;61938;48.652;9.292;2023-03-21T15:55:55;16.20;96.50
73643;DHT22;61938;48.652;9.292;2023-03-21T15:58:23;16.20;97.10
73643;DHT22;61938;48.652;9.292;2023-03-21T16:00:51;16.20;98.70
73643;DHT22;61938;48.652;9.292;2023-03-21T16:03:22;16.10;97.70
73643;DHT22;61938;48.652;9.292;2023-03-21T16:08:46;15.90;97.10
73643;DHT22;61938;48.652;9.292;2023-03-21T16:13:47;15.80;95.00
73643;DHT22;61938;48.652;9.292;2023-03-21T16:16:21;15.70;96.90
73643;DHT22;61938;48.652;9.292;2023-03-21T16:18:47;15.70;97.10
73643;DHT22;61938;48.652;9.292;2023-03-21T16:21:14;15.60;99.90
73643;DHT22;61938;48.652;9.292;2023-03-21T16:23:41;15.50;99.90
73643;DHT22;61938;48.652;9.292;2023-03-21T16:26:13;15.40;99.90
73643;DHT22;61938;48.652;9.292;2023-03-21T16:28:43;15.20;99.90
73643;DHT22;61938;48.652;9.292;2023-03-21T16:31:18;15.00;99.90
73643;DHT22;61938;48.652;9.292;2023-03-21T16:33:43;15.00;99.90
73643;DHT22;61938;48.652;9.292;2023-03-21T16:36:31;14.90;99.90
73643;DHT22;61938;48.652;9.292;2023-03-21T16:38:58;14.70;99.90
73643;DHT22;61938;48.652;9.292;2023-03-21T16:41:25;14.60;99.90
73643;DHT22;61938;48.652;9.292;2023-03-21T16:43:52;14.60;99.90
73643;DHT22;61938;48.652;9.292;2023-03-21T16:46:26;14.40;99.90
73643;DHT22;61938;48.652;9.292;2023-03-21T16:48:53;14.30;99.90
73643;DHT22;61938;48.652;9.292;2023-03-21T16:51:25;14.30;99.90
73643;DHT22;61938;48.652;9.292;2023-03-21T16:53:53;14.20;99.90
73643;DHT22;61938;48.652;9.292;2023-03-21T16:56:26;14.10;99.90
73643;DHT22;61938;48.652;9.292;2023-03-21T16:58:54;14.10;99.90
73643;DHT22;61938;48.652;9.292;2023-03-21T17:01:21;14.00;99.90
73643;DHT22;61938;48.652;9.292;2023-03-21T17:03:50;13.90;99.90
73643;DHT22;61938;48.652;9.292;2023-03-21T17:06:19;13.80;99.90
73643;DHT22;61938;48.652;9.292;2023-03-21T17:08:45;13.80;99.90
73643;DHT22;61938;48.652;9.292;2023-03-21T17:11:12;13.70;99.90